Date,TemperatureHighF,TemperatureAvgF,TemperatureLowF,DewpointHighF,DewpointAvgF,DewpointLowF,HumidityHigh,HumidityAvg,HumidityLow,PressureMaxIn,PressureMinIn,WindSpeedMaxMPH,WindSpeedAvgMPH,GustSpeedMaxMPH,PrecipitationSumIn
2013-1-1,88.3,69.9,56.5,62.6,59.8,55.2,96,74,42,30.25,30.08,15,2,15,0.00
2013-1-2,86.7,69.4,58.8,69.3,64.3,58.5,99,86,53,30.13,30.03,13,2,13,0.00
2013-1-3,87.8,72.4,61.3,70.9,65.5,60.8,99,82,46,30.17,30.06,14,2,14,0.00
2013-1-4,75.4,68.9,63.5,69.6,65.5,61.5,99,89,77,30.29,30.14,10,3,10,0.12
2013-1-5,87.6,71.3,61.7,66.7,63.7,60.6,98,79,49,30.30,30.19,11,4,53,0.00
2013-1-6,89.4,74.0,65.5,72.0,67.9,65.1,99,84,51,30.23,30.09,11,2,11,0.00
2013-1-7,82.8,70.8,66.0,69.1,67.1,64.0,97,89,61,30.22,30.11,13,4,13,0.17
2013-1-8,91.6,75.0,64.4,72.5,67.7,63.3,99,81,43,30.24,30.13,14,3,14,0.00
2013-1-9,92.1,78.8,70.5,72.3,68.3,63.0,96,74,42,30.30,30.19,15,4,15,0.00
2013-1-10,90.9,77.0,68.0,70.3,65.3,61.0,96,70,39,30.32,30.21,17,4,17,0.00
2013-1-11,90.3,74.9,62.6,69.3,64.6,59.9,98,74,42,30.30,30.15,13,3,13,0.00
2013-1-12,90.5,76.3,67.5,70.3,66.3,63.1,94,74,42,30.22,30.10,13,3,13,0.00
2013-1-13,90.7,74.5,64.2,68.4,65.3,61.3,97,75,44,30.17,30.09,9,3,9,0.00
2013-1-14,88.9,72.7,62.4,65.1,62.5,60.6,96,73,43,30.22,30.14,10,2,10,0.00
2013-1-15,91.8,73.4,60.3,68.7,62.8,59.9,99,73,41,30.18,30.09,12,2,12,0.00
2013-1-16,90.3,74.2,62.1,69.1,64.1,59.2,99,75,37,30.15,30.04,11,2,11,0.00
2013-1-17,86.2,69.2,60.4,71.1,61.9,50.4,99,79,57,30.18,30.04,21,5,21,0.01
2013-1-18,73.8,60.9,46.2,58.5,48.9,36.5,93,66,44,30.33,30.16,16,4,16,0.00
2013-1-19,80.6,68.1,59.5,64.8,61.9,58.1,97,82,57,30.28,30.14,11,4,11,0.01
2013-1-20,89.8,72.0,64.8,67.5,64.6,60.8,98,80,46,30.21,30.06,8,2,8,0.00
2013-1-21,84.9,69.1,61.9,67.6,63.4,59.2,96,83,54,30.14,30.04,14,4,14,0.00
2013-1-22,76.5,64.2,57.7,59.2,50.9,39.7,91,64,40,30.30,30.09,14,3,14,0.00
2013-1-23,83.5,64.7,53.8,49.6,41.9,32.7,66,46,21,30.37,30.26,15,4,15,0.01
2013-1-24,85.6,65.0,49.5,53.2,44.7,22.1,90,57,14,30.35,30.25,11,2,11,0.00
2013-1-25,86.9,65.5,48.2,58.6,51.2,47.7,99,65,31,30.34,30.22,8,2,8,0.00
2013-1-26,87.6,64.5,52.2,53.8,49.3,45.7,85,64,25,30.31,30.23,8,2,8,0.00
2013-2-4,55.6,54.1,53.2,48.9,48.1,47.1,83,80,75,30.12,30.11,2,0,2,0.00
2013-2-5,87.3,67.6,50.2,60.6,51.8,42.4,86,61,33,30.12,30.04,9,2,9,0.00
2013-2-6,88.5,72.4,57.6,66.0,60.0,53.8,90,68,40,30.16,30.06,11,2,11,0.00
2013-2-7,89.1,74.3,62.4,66.6,64.0,60.8,97,73,42,30.12,29.97,15,4,15,0.00
2013-2-8,92.5,74.7,61.2,71.1,63.5,48.0,97,73,29,30.12,29.94,19,5,19,0.00
2013-2-9,87.6,70.0,56.8,62.8,59.1,56.3,99,72,38,30.22,30.09,17,4,17,0.00
2013-2-10,89.1,73.0,63.0,63.9,61.0,57.4,90,69,36,30.28,30.17,14,5,14,0.00
2013-2-11,90.3,73.9,62.2,66.4,63.9,60.6,96,74,42,30.25,30.13,12,4,12,0.00
2013-2-12,68.9,66.3,64.9,66.4,65.1,64.0,99,96,90,30.16,30.10,6,2,6,0.00
2013-2-14,60.3,60.1,59.9,58.6,58.5,58.3,95,94,93,30.08,30.05,9,4,9,0.00
2013-2-15,61.0,60.6,60.3,60.4,59.4,58.3,99,95,93,30.05,30.00,4,1,5,0.01
2013-2-17,68.2,56.3,42.8,29.1,20.2,7.3,53,29,11,30.36,30.28,13,2,13,0.00
2013-2-18,77.9,57.5,37.9,49.6,38.6,21.9,77,52,24,30.35,30.23,12,4,15,0.00
2013-2-19,86.2,67.7,52.0,64.0,57.7,47.8,97,73,45,30.24,30.12,12,2,12,0.00
2013-2-20,93.4,72.3,56.8,69.6,59.8,53.1,99,71,30,30.15,30.02,11,2,11,0.00
2013-2-21,90.1,73.4,61.3,68.2,63.8,59.5,99,75,42,30.13,30.03,11,2,11,0.00
2013-2-22,91.6,75.4,63.7,71.8,66.8,62.8,99,78,45,30.12,30.02,12,3,12,0.00
2013-2-23,89.1,76.4,69.3,73.6,70.8,68.0,98,85,56,30.07,29.95,17,4,17,0.00
2013-2-24,89.1,77.4,69.3,78.6,70.7,68.5,99,82,53,30.03,29.94,15,3,15,0.00
2013-2-25,88.7,76.8,66.6,73.0,70.0,66.2,99,82,55,29.96,29.83,16,3,16,0.00
2013-2-26,86.9,76.5,67.8,74.3,71.1,64.4,96,84,64,29.94,29.79,21,6,21,0.01
2013-2-27,85.1,71.3,63.7,69.6,62.8,58.8,99,76,46,30.02,29.90,10,3,10,0.00
2013-2-28,81.7,67.1,60.1,59.2,55.9,52.9,87,69,40,30.06,29.96,15,3,15,0.00
2013-3-1,73.4,63.2,57.6,57.6,49.3,41.0,77,61,41,30.06,29.96,11,2,11,0.00
2013-3-2,67.5,57.7,53.4,46.4,42.3,38.7,65,57,41,30.10,30.02,17,3,17,0.00
2013-3-3,67.1,54.4,43.2,48.7,42.7,34.2,98,67,36,30.20,30.01,22,4,22,0.06
2013-3-4,78.3,57.2,37.8,46.8,38.0,18.5,93,56,13,30.27,30.15,11,3,11,0.00
2013-3-5,81.0,62.2,44.6,58.8,51.7,40.8,99,73,42,30.21,30.11,15,3,15,0.00
2013-3-6,74.5,64.0,52.3,64.2,51.2,34.3,99,67,26,30.17,30.04,19,5,19,0.00
2013-3-7,78.6,58.3,45.1,48.9,38.9,22.3,84,54,14,30.26,30.14,15,4,15,0.00
2013-3-8,87.1,62.9,42.3,52.5,44.2,21.7,98,60,11,30.26,30.14,13,3,13,0.00
2013-3-9,85.8,67.0,49.5,54.1,47.5,27.1,99,57,14,30.24,30.14,12,3,12,0.00
2013-3-10,86.9,70.8,56.5,60.3,54.4,51.1,86,60,32,30.20,30.06,15,4,15,0.00
2013-3-11,86.7,71.9,60.6,63.7,59.5,56.5,92,68,39,30.13,29.95,15,4,15,0.00
2013-3-12,78.8,68.2,58.8,70.0,63.7,54.1,92,86,71,30.08,29.91,18,5,18,0.01
2013-3-13,87.8,66.1,54.1,54.5,45.6,22.1,95,57,12,30.21,30.06,12,3,12,0.00
2013-3-14,83.5,62.6,51.3,50.7,38.2,14.4,85,50,11,30.28,30.17,17,3,17,0.00
2013-3-15,85.1,62.8,46.4,48.4,36.9,14.4,86,50,11,30.33,30.17,14,3,14,0.00
2013-3-16,82.8,64.7,50.0,54.7,48.3,37.9,96,61,23,30.24,30.12,13,3,13,0.00
2013-3-17,86.4,67.6,54.0,61.2,56.5,51.1,96,71,40,30.17,30.04,12,2,12,0.00
2013-3-18,81.5,69.9,62.2,71.6,65.1,58.6,98,85,63,30.09,29.96,15,3,15,0.12
2013-3-19,89.6,73.5,65.8,69.3,66.8,64.9,99,82,46,30.04,29.88,17,3,17,0.02
2013-3-20,84.9,68.8,61.9,67.3,63.4,58.6,99,85,45,30.04,29.85,18,3,18,0.07
2013-3-21,86.9,68.3,55.2,64.6,49.3,21.9,99,60,11,30.01,29.89,14,3,14,0.01
2013-3-22,86.4,68.1,51.4,71.4,55.7,39.6,93,66,37,30.02,29.92,14,4,14,0.00
2013-3-23,89.1,77.4,68.4,78.4,70.5,68.0,99,81,54,30.01,29.85,18,4,18,0.30
2013-3-24,86.7,77.2,71.1,75.6,72.7,67.8,97,87,67,29.90,29.72,21,6,21,0.04
2013-3-25,85.5,72.5,56.8,75.0,53.7,27.3,99,58,15,30.09,29.80,17,4,17,0.00
2013-3-26,71.6,58.7,49.5,47.7,40.4,31.1,78,53,30,30.28,30.07,23,5,23,0.00
2013-3-27,74.1,56.6,44.8,46.4,36.9,25.7,76,52,18,30.34,30.23,15,4,15,0.00
2013-3-28,84.2,60.9,43.5,49.5,39.0,21.4,91,54,11,30.34,30.20,14,3,14,0.00
2013-3-29,87.1,65.6,48.2,52.7,43.0,30.4,86,52,15,30.35,30.22,11,2,11,0.00
2013-3-30,85.5,68.0,54.7,55.9,52.5,45.3,91,61,33,30.30,30.17,29,3,29,0.00
2013-3-31,88.0,71.6,56.7,63.3,58.5,52.7,92,66,34,30.23,30.06,15,3,15,0.01
2013-4-1,87.1,74.4,63.5,71.4,66.5,62.1,99,79,49,30.09,30.01,17,4,17,0.00
2013-4-2,91.0,76.2,66.0,69.8,66.0,62.2,99,75,42,30.13,30.04,12,3,12,0.01
2013-4-3,93.2,77.5,66.6,71.2,67.0,62.6,95,73,41,30.11,29.98,17,4,17,0.00
2013-4-4,84.9,72.5,65.8,74.3,68.8,64.9,99,89,65,30.07,29.88,18,3,18,0.41
2013-4-5,78.1,70.1,62.2,68.7,63.7,55.8,99,81,48,30.06,29.85,16,6,16,0.53
2013-4-6,85.1,67.3,59.9,59.9,57.3,54.5,91,73,39,30.11,30.00,13,3,13,0.00
2013-4-20,96.8,84.8,70.7,76.8,71.7,67.1,98,67,44,30.16,29.99,12,3,12,0.05
2013-4-21,96.8,75.7,64.2,73.9,68.6,63.3,99,82,41,30.16,30.01,13,3,13,0.52
2013-4-22,90.3,75.9,68.0,75.6,69.8,66.9,99,83,51,30.11,29.97,10,2,10,0.38
2013-4-23,95.2,77.3,66.6,69.4,65.6,60.4,99,71,37,30.13,30.01,16,4,16,0.00
2013-4-24,98.4,78.2,62.1,68.2,64.6,59.7,98,67,33,30.17,30.08,15,3,15,0.00
2013-4-25,97.5,80.0,65.1,70.0,64.8,55.2,99,64,26,30.24,30.12,13,3,13,0.00
2013-4-26,93.6,79.1,62.8,65.5,63.0,60.4,95,61,37,30.27,30.16,14,3,14,0.00
2013-4-27,93.9,79.4,66.4,68.4,63.7,59.5,99,63,35,30.25,30.09,15,4,15,0.00
2013-4-28,94.8,76.2,45.5,71.2,62.8,41.5,86,66,36,30.15,29.99,13,4,13,0.00
2013-4-29,93.6,58.1,45.5,70.0,49.1,41.5,86,75,43,30.06,29.96,14,4,14,0.00
2013-4-30,94.8,77.5,45.5,75.4,70.6,41.5,99,81,46,30.02,29.94,14,3,14,0.00
2013-5-1,83.1,72.4,68.0,75.6,70.8,67.6,99,95,76,30.03,29.86,19,3,19,0.98
2013-5-2,82.8,70.4,67.3,73.4,69.0,66.7,99,96,67,29.99,29.84,10,1,10,0.18
2013-5-3,90.7,76.2,63.1,74.3,68.0,62.2,99,79,48,29.88,29.74,15,3,15,0.00
2013-5-4,85.5,76.3,70.9,71.2,68.8,65.8,96,78,59,29.86,29.73,22,7,22,0.00
2013-5-5,88.0,75.7,65.1,69.3,59.0,45.0,92,61,26,30.00,29.83,16,6,16,0.00
2013-5-6,85.5,72.7,61.5,66.6,62.1,58.1,97,72,46,30.06,29.96,14,3,14,0.00
2013-5-7,83.8,71.7,57.7,63.7,60.0,57.2,99,70,46,30.11,30.02,16,4,16,0.00
2013-5-8,88.5,74.1,59.5,66.6,60.3,44.1,99,67,23,30.18,30.09,11,2,11,0.00
2013-5-9,95.4,77.0,60.6,66.9,60.4,37.9,99,64,17,30.19,30.10,10,2,10,0.00
2013-5-10,93.9,77.9,65.7,74.8,69.3,65.3,99,78,46,30.17,30.03,14,3,14,0.00
2013-5-11,94.5,81.7,71.1,76.6,73.3,67.3,98,78,44,30.11,30.02,13,4,13,0.00
2013-5-12,92.3,81.7,73.0,78.4,74.3,69.8,99,80,55,30.09,29.96,15,4,15,0.00
2013-5-13,95.2,80.8,70.5,75.0,68.1,51.4,99,68,40,30.16,30.04,13,3,13,0.00
2013-5-14,96.1,78.0,64.2,58.6,54.8,36.9,82,49,15,30.22,30.12,17,4,17,0.00
2013-5-15,94.6,77.5,62.2,63.0,59.4,55.9,89,57,32,30.23,30.10,11,4,13,0.00
2013-5-16,95.5,79.8,45.5,67.3,60.7,41.5,90,58,24,30.15,30.03,10,3,10,0.00
2013-5-17,102.7,75.5,45.5,76.8,59.9,41.5,96,65,14,30.12,30.05,11,2,11,0.00
2013-5-18,94.5,61.8,45.5,72.9,56.1,41.5,99,84,43,30.14,30.04,11,3,11,0.00
2013-5-19,74.1,50.8,45.5,73.8,47.4,41.5,99,88,86,30.13,30.01,17,2,17,0.60
2013-5-20,100.8,79.6,70.2,79.3,71.8,65.7,99,81,34,30.10,29.99,18,2,18,0.01
2013-5-21,97.5,78.3,68.7,76.3,70.9,68.4,99,82,42,30.05,29.91,16,3,16,0.46
2013-5-22,94.6,80.6,69.4,77.2,71.9,69.1,99,78,48,29.99,29.91,12,3,12,0.01
2013-5-23,95.4,82.5,70.2,75.9,71.7,65.7,99,74,40,30.06,29.94,11,4,11,0.00
2013-5-24,102.9,84.6,72.1,76.5,71.3,63.3,99,69,32,30.11,30.00,14,2,14,0.00
2013-5-25,97.9,82.1,69.4,75.6,69.2,64.0,99,70,35,30.19,30.06,14,4,14,0.00
2013-5-26,97.0,82.4,67.5,69.3,65.0,59.2,95,59,32,30.22,30.12,13,4,13,0.00
2013-5-27,96.4,80.4,45.5,73.0,67.9,41.5,93,69,41,30.20,30.06,20,4,20,0.00
2013-5-28,101.7,80.2,70.3,80.1,73.4,67.6,98,82,52,30.15,30.04,17,5,17,0.00
2013-5-29,92.7,78.8,72.0,76.5,72.7,69.8,99,83,50,30.12,30.03,17,5,17,0.08
2013-5-30,92.7,80.0,71.8,78.8,73.6,70.9,99,83,55,30.09,29.99,18,5,18,0.18
2013-5-31,93.0,80.4,73.0,78.4,74.5,72.0,99,84,56,30.09,30.01,15,4,15,0.02
2013-6-1,98.1,81.3,73.8,78.1,75.1,71.1,99,84,45,30.07,29.98,14,3,14,0.06
2013-6-2,97.0,83.5,72.0,79.0,74.6,70.9,99,77,46,30.04,29.94,13,3,13,0.00
2013-6-3,89.8,80.3,75.4,77.9,75.5,72.5,98,86,66,30.04,29.95,17,3,17,0.00
2013-6-4,88.7,78.7,72.7,79.2,75.3,71.8,99,90,68,30.07,29.99,11,3,11,0.04
2013-6-5,81.5,78.0,76.3,78.1,76.6,75.4,99,96,83,30.04,29.89,12,4,12,0.15
2013-6-6,82.6,76.5,71.6,81.3,75.1,70.5,99,96,84,29.91,29.78,32,6,32,2.75
2013-6-7,88.3,80.3,75.2,79.3,75.6,70.7,99,87,58,30.02,29.84,9,2,9,0.00
2013-6-8,98.1,84.0,75.7,81.1,77.0,73.8,99,81,52,30.14,29.99,13,4,13,0.00
2013-6-9,99.9,85.1,75.7,79.3,75.8,71.2,99,77,41,30.14,30.03,11,3,11,0.00
2013-6-10,100.2,85.0,75.9,79.3,76.4,71.2,99,78,41,30.12,30.03,12,3,12,0.00
2013-6-11,102.9,83.8,70.3,81.1,75.7,69.6,99,81,44,30.12,30.01,26,3,26,1.15
2013-6-13,100.6,84.8,69.8,81.1,75.6,69.3,99,77,43,30.09,29.96,12,2,12,0.00
2013-6-14,95.2,83.5,73.9,79.0,74.7,70.5,99,78,48,30.01,29.92,14,3,14,0.01
2013-6-15,102.7,85.8,73.9,80.2,75.6,71.6,99,75,41,30.08,29.97,10,2,10,0.00
2013-6-16,102.6,85.2,75.0,81.7,76.9,72.0,99,79,41,30.13,30.04,15,2,15,0.34
2013-6-17,107.1,87.7,74.3,80.6,68.9,35.1,99,67,11,30.11,30.02,14,2,14,0.05
2013-6-18,108.3,89.7,74.8,81.7,65.0,35.1,99,61,11,30.10,30.00,11,3,14,0.05
2013-6-19,109.0,87.9,74.8,80.6,66.8,35.1,99,64,11,30.09,30.01,14,3,14,0.00
2013-6-20,102.9,81.7,73.6,81.1,75.6,73.2,99,84,45,30.14,30.05,12,2,12,0.72
2013-6-21,97.2,80.4,72.0,85.1,74.9,70.5,99,85,46,30.16,30.06,21,1,21,0.67
2013-6-22,104.4,85.6,72.1,78.4,67.4,35.1,99,67,11,30.14,30.05,10,2,10,0.00
2013-6-23,102.6,83.6,74.7,78.8,74.6,44.2,99,78,15,30.16,30.09,11,2,11,0.06
2013-6-24,77.4,77.2,77.0,75.4,75.2,75.0,94,93,93,30.16,30.15,4,2,4,0.00
2013-6-27,99.9,84.0,71.6,79.7,75.3,70.7,99,78,42,30.09,29.98,17,2,19,0.30
2013-6-28,96.8,84.6,73.6,80.2,75.5,71.8,99,77,48,30.03,29.91,12,3,12,0.01
2013-6-29,96.1,84.8,76.5,80.4,76.5,71.2,99,79,49,29.95,29.86,14,4,14,0.06
2013-6-30,94.8,82.5,74.3,81.7,77.2,73.9,99,86,59,29.95,29.87,18,4,18,0.57
2013-7-1,92.1,76.6,70.7,81.7,74.8,70.2,99,95,59,30.05,29.93,22,3,22,3.44
2013-7-2,95.0,78.2,72.3,81.7,75.6,71.4,99,92,64,30.13,29.99,13,2,13,0.53
2013-7-3,95.2,78.6,73.2,80.2,75.5,72.3,99,91,54,30.16,30.07,18,3,18,0.57
2013-7-4,95.4,80.0,72.7,79.7,75.3,71.8,99,87,54,30.18,30.08,14,3,14,0.22
2013-7-5,94.1,80.0,73.2,80.1,76.0,72.3,99,89,54,30.17,30.07,22,3,22,0.40
2013-7-6,103.6,86.2,75.7,79.5,66.8,28.2,99,66,11,30.14,30.03,13,3,15,0.00
2013-7-7,103.3,87.9,76.3,80.6,64.0,28.8,99,60,11,30.15,30.04,15,4,15,0.01
2013-7-8,104.4,86.0,75.4,78.4,66.1,35.1,99,66,11,30.18,30.10,15,3,15,0.02
2013-7-9,100.8,82.5,72.3,80.2,71.0,35.1,99,77,11,30.18,30.08,16,2,16,0.12
2013-7-10,100.9,81.9,72.7,80.2,69.2,29.3,99,77,11,30.13,30.01,12,1,12,0.53
2013-7-11,104.0,85.0,73.8,79.9,68.9,35.1,99,70,11,30.07,29.97,9,2,9,0.01
2013-7-12,102.2,92.0,77.7,80.2,57.6,35.1,94,45,11,30.01,29.93,9,3,9,0.01
2013-7-13,94.3,80.0,73.8,80.6,75.9,73.2,99,89,55,30.03,29.94,11,2,11,0.87
2013-7-14,88.7,77.5,74.3,78.1,75.6,73.9,99,94,64,30.11,29.99,10,2,10,0.11
2013-7-16,85.5,83.8,82.6,74.5,74.3,74.1,76,73,69,30.15,30.14,16,13,16,0.01
2013-7-17,87.1,80.2,76.3,73.8,72.7,71.2,90,79,61,30.13,30.09,8,3,8,0.01
2013-7-18,85.1,75.7,72.0,77.7,73.6,71.1,99,94,76,30.16,30.09,12,2,12,0.66
2013-7-19,95.4,79.4,70.5,81.9,74.6,70.0,99,87,53,30.17,30.07,11,2,11,0.18
2013-7-20,98.1,80.7,73.4,82.0,75.4,70.9,99,86,51,30.15,30.05,14,2,15,0.00
2013-7-21,96.3,83.2,76.3,81.7,77.6,74.1,99,85,56,30.17,30.07,10,2,10,0.04
2013-7-22,96.4,85.4,76.1,79.5,76.7,73.6,99,77,53,30.18,30.11,118,3,118,0.00
2013-7-23,96.8,85.8,76.3,80.6,76.7,72.0,99,77,46,30.14,30.02,10,3,11,0.00
2013-7-24,94.1,84.9,75.2,76.8,74.8,70.0,99,74,48,30.07,29.97,12,4,12,0.00
2013-7-25,94.8,86.1,80.8,79.0,76.7,75.4,86,74,58,30.06,29.95,12,5,12,0.00
2013-7-26,98.8,87.4,71.4,82.4,76.9,70.5,99,73,49,30.07,29.99,24,3,24,0.47
2013-7-27,99.9,86.0,75.9,83.5,76.8,71.6,99,77,45,30.04,29.96,12,2,12,0.31
2013-7-28,98.2,86.2,76.1,79.9,74.7,68.9,99,72,40,30.10,29.98,10,2,12,0.01
2013-7-29,103.5,82.9,73.6,79.3,75.0,70.9,99,81,40,30.18,30.06,12,2,18,0.40
2013-7-30,98.8,82.6,74.5,82.8,77.0,74.1,99,86,47,30.20,30.11,15,2,15,0.04
2013-7-31,100.4,84.5,75.7,80.4,76.2,72.0,99,79,45,30.16,30.04,13,2,13,0.00
2013-8-1,101.1,82.1,71.8,79.0,74.6,70.9,99,82,41,30.09,29.95,25,2,25,1.62
2013-8-2,99.5,82.2,73.2,84.2,76.0,72.1,99,84,44,30.10,29.97,14,1,14,0.40
2013-8-3,98.1,81.3,73.2,81.3,77.0,72.3,99,89,50,30.15,30.05,9,1,9,0.65
2013-8-4,97.2,85.5,76.8,84.7,78.1,74.5,99,81,52,30.14,30.04,11,3,11,0.00
2013-8-5,98.2,85.9,78.8,81.7,78.4,75.4,98,80,52,30.09,29.98,11,2,11,0.01
2013-8-6,101.5,85.2,77.4,82.4,77.4,72.0,99,80,43,30.02,29.93,13,1,13,0.00
2013-8-7,99.7,82.7,75.6,79.7,77.2,74.3,99,86,47,30.00,29.93,13,2,13,0.30
2013-8-8,100.2,83.9,75.9,80.2,76.4,70.9,99,82,42,30.02,29.96,15,2,15,0.01
2013-8-15,94.5,84.0,78.1,81.0,77.5,75.0,96,82,61,30.10,29.99,10,2,10,0.00
2013-8-16,107.1,89.7,77.7,80.4,61.1,28.2,99,55,11,30.09,29.98,14,2,14,0.00
2013-8-17,106.3,86.6,75.6,82.8,67.5,28.4,99,70,11,30.11,30.00,20,2,20,0.31
2013-8-18,106.5,85.9,75.4,84.0,64.5,35.1,99,68,11,30.14,30.01,18,2,18,0.46
2013-8-19,105.6,83.5,73.2,81.3,63.8,28.2,99,70,11,30.12,29.99,13,2,13,0.56
2013-8-20,101.5,83.6,72.9,81.7,67.6,28.2,99,72,11,30.09,30.02,11,2,11,0.01
2013-8-21,104.7,86.7,77.5,81.5,65.0,28.2,99,66,11,30.11,30.01,15,3,15,0.05
2013-8-22,109.2,84.8,73.0,81.7,66.9,28.2,99,73,11,30.09,29.97,14,2,14,1.59
2013-8-23,107.4,83.9,74.8,85.1,68.5,28.2,99,75,11,30.05,29.97,9,2,9,0.02
2013-8-24,109.2,84.8,73.4,81.5,65.9,28.2,99,71,11,30.17,30.01,13,2,13,1.31
2013-8-25,102.6,82.5,74.7,82.2,67.0,28.2,99,76,11,30.18,30.05,9,2,9,0.06
2013-8-26,103.5,81.2,73.0,81.3,68.7,28.8,99,80,11,30.16,30.02,11,2,11,1.16
2013-8-27,100.4,79.3,71.6,80.8,72.0,28.4,99,85,11,30.09,30.00,14,1,14,0.33
2013-8-28,99.9,80.8,73.2,78.3,68.4,28.2,99,78,11,30.07,30.01,12,2,12,0.08
2013-8-29,101.7,84.9,72.7,78.4,58.0,28.2,99,58,11,30.07,29.96,9,2,9,0.00
2013-8-30,105.1,85.2,74.3,80.1,57.7,28.2,99,58,11,30.04,29.93,9,1,9,0.00
2013-8-31,101.5,86.3,73.9,80.2,56.6,28.2,99,55,11,30.02,29.94,14,2,14,0.01
2013-9-1,103.8,84.3,73.8,81.5,64.9,22.5,99,70,11,30.04,29.96,17,2,17,0.21
2013-9-2,104.2,81.7,74.8,82.0,68.1,28.2,99,78,11,30.07,29.97,10,1,10,0.05
2013-9-3,105.3,85.0,73.4,84.7,62.8,28.2,99,65,11,30.07,29.97,9,1,9,0.14
2013-9-4,104.4,82.2,76.1,81.9,71.5,28.8,99,83,11,30.11,29.98,16,1,16,0.14
2013-9-5,108.3,87.7,75.0,84.4,63.6,28.2,99,63,11,30.12,30.01,11,2,11,0.01
2013-9-6,108.3,90.3,74.3,82.2,63.0,28.6,99,58,11,30.09,29.94,18,2,18,0.56
2013-9-7,104.0,81.5,72.9,78.6,61.9,28.2,99,70,11,30.01,29.94,11,2,11,0.35
2013-9-8,106.5,82.9,71.2,79.2,60.5,28.2,99,66,11,29.99,29.88,12,2,12,0.12
2013-9-9,104.4,86.9,74.5,78.8,52.5,28.2,99,48,11,30.04,29.94,11,3,11,0.01
2013-9-10,104.4,86.4,75.0,82.0,52.0,21.9,99,47,11,30.08,29.99,16,4,16,0.11
2013-9-11,103.8,85.6,74.7,82.2,57.2,28.2,99,56,11,30.08,30.00,15,3,15,0.00
2013-9-12,104.0,83.4,73.8,88.0,66.2,28.2,99,73,11,30.05,29.91,17,2,17,0.78
2013-9-13,105.6,86.8,71.6,84.9,53.5,28.2,99,49,11,29.95,29.84,10,2,10,0.01
2013-9-14,108.0,87.5,72.9,84.6,60.0,28.2,99,59,11,30.00,29.87,11,2,11,0.32
2013-9-15,105.8,84.1,75.9,83.5,58.9,21.2,99,61,11,30.10,29.97,28,3,28,0.05
2013-9-16,101.8,79.8,73.9,81.7,69.5,28.2,99,83,11,30.09,29.99,20,3,20,0.15
2013-9-17,100.2,79.3,73.6,81.0,67.1,28.2,99,81,11,30.06,29.95,15,3,15,0.14
2013-9-18,103.8,80.6,73.0,81.9,66.5,28.2,99,79,11,30.05,29.96,14,2,14,0.04
2013-9-19,104.4,85.6,72.0,80.8,52.7,28.2,99,49,11,30.06,29.97,13,2,13,0.01
2013-9-20,102.2,86.3,73.2,80.1,50.4,21.2,99,46,11,30.05,29.92,12,3,12,0.00
2013-9-21,104.4,86.4,71.6,78.6,48.2,21.2,99,42,11,29.97,29.81,8,2,8,0.00
2013-9-22,101.8,87.6,74.7,83.7,55.0,28.2,99,51,11,29.90,29.81,11,2,11,0.02
2013-9-23,86.0,78.8,74.5,83.7,78.2,74.1,99,98,91,30.01,29.87,17,2,17,3.33
2013-9-24,88.7,76.5,72.1,84.6,75.5,71.2,99,97,77,30.00,29.91,17,2,17,1.30
2013-9-25,90.0,76.7,71.2,80.2,75.2,70.7,99,96,68,29.98,29.83,9,1,9,0.17
2013-9-26,100.6,85.7,74.5,87.4,67.0,28.2,99,70,11,29.91,29.84,17,4,17,0.11
2013-9-27,105.6,86.1,72.3,76.5,50.2,21.4,99,46,11,29.98,29.88,12,2,12,0.00
2013-9-28,106.9,86.0,72.0,76.5,47.1,21.2,99,39,11,30.02,29.91,16,4,16,0.00
2013-9-29,107.8,87.0,71.6,77.4,50.0,28.2,99,44,11,30.01,29.90,11,3,11,0.00
2013-9-30,113.9,87.2,72.0,79.9,53.5,28.2,99,49,11,30.04,29.92,9,2,9,0.13
2013-10-1,110.1,87.3,72.9,79.2,50.5,26.4,99,45,11,30.07,29.97,11,3,11,0.00
2013-10-2,104.4,86.1,74.1,77.5,51.6,28.2,99,44,11,30.07,29.97,13,4,13,0.00
2013-10-3,110.5,84.0,74.7,80.8,61.6,28.4,99,63,11,30.08,29.98,15,2,15,1.45
2013-10-4,107.6,84.9,73.0,80.8,53.6,28.2,99,52,11,30.10,30.01,9,2,9,0.00
2013-10-5,107.1,87.9,72.1,75.4,41.9,22.1,99,29,11,30.09,29.95,11,2,11,0.00
2013-10-6,109.8,87.6,70.0,79.3,48.7,28.2,99,37,11,30.01,29.90,10,2,10,0.00
2013-10-7,105.6,87.0,74.8,87.1,64.0,28.2,99,60,11,29.92,29.83,18,4,18,0.15
2013-10-8,104.2,87.3,76.6,80.4,52.1,22.3,98,44,11,29.97,29.87,11,3,11,0.00
2013-10-9,112.5,86.5,72.9,80.6,51.6,28.2,99,43,11,30.05,29.95,11,2,11,0.00
2013-10-10,115.2,86.4,67.6,75.6,49.4,21.7,99,44,11,30.08,29.97,11,2,11,0.00
2013-10-11,122.2,87.9,64.4,75.7,52.2,21.2,99,41,11,30.07,29.97,9,1,9,0.00
2013-10-12,117.9,86.3,64.8,72.7,46.7,21.2,99,37,11,30.08,29.99,10,2,10,0.00
2013-10-13,113.0,86.8,64.6,74.7,43.2,14.4,99,27,11,30.10,29.99,11,2,11,0.00
2013-10-14,115.3,87.1,64.4,71.6,44.7,15.6,99,32,11,30.07,29.94,10,2,10,0.00
2013-10-15,120.6,88.9,67.8,76.3,51.8,21.2,99,37,11,30.02,29.90,8,2,8,0.00
2013-10-16,116.4,83.9,67.1,77.5,52.8,28.2,99,50,11,30.00,29.91,10,2,10,0.00
2013-10-17,117.3,87.9,67.3,77.5,52.4,28.2,99,42,11,30.01,29.92,8,2,8,0.00
2013-10-18,133.7,92.4,71.8,93.9,60.2,28.2,99,42,11,30.02,29.92,8,2,8,0.00
2013-10-19,113.2,94.0,74.1,82.2,59.2,35.4,99,40,12,29.99,29.90,10,3,10,0.04
2013-10-20,116.8,93.1,76.3,84.4,63.9,28.2,99,52,11,30.00,29.90,8,2,8,0.00
2013-10-21,131.2,63.3,-8.3,88.3,56.6,-19.8,99,84,25,30.04,29.94,9,2,9,0.00
2013-10-22,45.5,45.5,45.5,44.8,40.6,-8.0,97,85,10,30.00,29.87,14,3,14,0.04
2013-10-23,45.5,45.5,45.5,44.8,43.1,-8.0,97,93,10,30.02,29.85,5,1,10,0.08
2013-10-24,45.5,45.5,45.5,41.5,41.5,41.5,86,86,86,30.18,30.01,11,4,12,0.00
2013-10-25,45.5,45.5,45.5,41.5,41.5,41.5,86,86,86,30.24,30.15,14,3,14,0.00
2013-10-26,45.5,45.5,45.5,41.5,41.5,41.5,86,86,86,30.22,30.09,11,3,11,0.00
2013-10-27,45.5,43.2,-7.6,41.5,39.1,-8.9,99,86,78,30.14,30.06,11,2,11,0.04
2013-10-28,45.5,45.5,45.5,44.8,40.6,-8.0,97,84,10,30.20,30.10,11,3,11,0.00
2013-10-29,45.5,45.5,45.5,41.5,41.5,41.5,86,86,86,30.24,30.12,16,4,16,0.00
2013-10-30,45.5,45.5,45.5,44.8,40.2,-8.0,97,84,10,30.24,30.09,16,3,16,0.00
2013-10-31,45.5,45.5,45.5,44.8,38.8,-8.0,97,81,10,30.15,30.01,11,2,38,0.00
2013-11-1,45.5,45.5,45.5,44.8,39.6,-8.0,97,84,10,30.05,29.93,12,2,12,0.00
2013-11-2,45.5,45.5,45.5,44.8,39.5,-8.0,97,82,10,30.01,29.86,12,2,12,0.00
2013-11-3,45.5,45.5,45.5,41.5,41.5,41.5,86,86,86,30.11,29.98,15,2,15,0.05
2013-11-4,74.7,44.2,-37.1,41.5,40.1,-49.9,88,86,47,30.15,29.98,12,2,12,0.00
2013-11-5,45.5,45.5,45.5,44.8,41.7,-8.0,97,87,31,30.12,30.05,14,3,14,0.00
2013-11-6,45.5,45.5,45.5,44.8,41.3,-8.0,97,85,23,30.11,30.01,13,2,13,0.00
2013-11-7,81.7,45.5,45.5,44.8,40.8,-8.0,97,85,10,30.08,29.98,7,1,7,0.00
2013-11-8,45.5,45.5,45.5,44.8,41.0,-8.0,97,86,10,30.11,30.01,9,2,9,0.00
2013-11-9,45.5,45.5,45.5,44.8,41.6,29.3,97,86,60,30.16,30.08,12,2,12,0.00
2013-11-10,45.5,45.5,45.5,44.8,38.0,-8.0,97,80,10,30.17,30.06,9,2,9,0.00
2013-11-11,75.9,45.5,45.5,44.8,40.9,-8.0,97,85,10,30.17,30.01,10,2,10,0.00
2013-11-12,45.5,45.5,45.5,44.8,41.1,-8.0,97,86,10,30.14,30.01,11,1,11,0.00
2013-11-13,75.4,44.2,-39.6,75.0,40.1,-53.3,99,86,44,30.28,30.03,13,3,13,0.00
2013-11-14,45.5,37.3,15.1,41.5,33.0,9.7,88,84,78,30.28,30.16,14,3,14,0.00
2013-11-15,45.5,45.5,45.5,41.5,41.5,-23.6,86,86,86,30.20,30.05,15,2,15,3.02
2013-11-16,45.5,45.5,45.5,44.8,38.6,-8.0,97,82,10,30.12,30.05,12,2,12,0.13
2013-11-17,72.1,45.5,45.5,44.8,40.4,-8.0,97,85,10,30.11,29.91,14,2,14,0.00
2013-11-18,45.5,45.5,45.5,44.8,39.2,-8.0,97,82,10,30.07,29.96,8,1,8,0.00
2013-11-19,45.5,45.5,45.5,44.8,38.7,-8.0,97,82,10,29.99,29.89,10,1,10,0.00
2013-11-20,45.5,45.5,45.5,44.8,40.2,-8.0,97,84,10,30.11,29.97,9,2,9,0.00
2013-11-21,73.8,45.5,45.5,44.8,37.4,-8.0,97,79,10,30.19,29.99,8,2,8,0.21
2013-11-22,45.5,45.5,45.5,44.8,41.6,10.8,97,87,24,30.19,30.09,11,2,11,0.00
2013-11-23,73.6,45.5,45.5,44.8,42.1,27.0,97,88,48,30.14,29.88,9,1,9,0.00
2013-11-26,87.8,78.0,70.2,75.2,72.2,68.7,98,84,57,30.00,29.83,21,8,21,0.33
2013-11-27,75.2,68.8,52.7,73.0,61.1,46.9,99,78,54,30.22,29.81,25,6,25,0.12
2013-11-28,71.6,56.1,41.4,54.1,46.7,37.4,89,72,47,30.35,30.21,9,2,9,0.00
2013-11-29,79.7,64.9,53.8,59.4,55.8,52.0,95,75,49,30.37,30.23,10,2,10,0.00
2013-11-30,80.6,66.2,57.0,66.4,61.3,54.3,99,85,60,30.31,30.17,9,1,9,0.00
2013-12-1,78.3,66.9,61.3,68.0,63.9,60.8,99,91,68,30.20,30.01,8,1,8,0.00
2013-12-2,78.6,66.8,59.7,65.5,63.2,59.4,99,89,59,30.01,29.88,11,2,11,0.00
2013-12-3,81.5,70.8,64.2,66.0,63.7,57.2,98,80,58,30.02,29.94,12,2,12,0.00
2013-12-4,86.2,73.5,63.9,69.8,65.0,59.9,99,77,46,30.12,30.01,15,2,15,0.00
2013-12-5,85.3,73.6,65.8,70.7,67.1,58.5,99,82,49,30.20,30.10,15,2,15,0.00
2013-12-6,88.2,74.8,67.6,73.0,69.0,65.7,99,84,53,30.22,30.11,17,2,17,0.00
2013-12-7,87.3,74.3,63.1,70.9,66.2,62.2,99,78,47,30.26,30.15,9,1,9,0.00
2013-12-8,87.1,74.7,66.2,72.3,66.8,11.1,99,79,46,30.24,30.12,19,2,19,0.00
2013-12-9,87.8,74.6,67.6,73.2,67.5,63.1,99,81,48,30.21,30.11,17,2,17,0.00
2013-12-10,87.8,74.0,64.4,73.0,67.8,64.0,99,83,50,30.20,30.11,13,2,13,0.00
2013-12-11,88.3,74.6,66.7,69.8,67.6,65.3,99,81,50,30.26,30.16,11,1,11,0.00
2013-12-12,72.0,67.6,58.1,68.5,61.1,37.9,99,82,39,30.30,30.18,7,1,7,0.00
2013-12-13,81.1,66.8,54.1,62.8,56.0,44.2,89,70,49,30.28,30.12,15,2,15,0.00
2013-12-14,88.5,74.3,64.8,72.1,68.0,62.6,99,82,50,30.13,29.99,22,4,22,0.00
2013-12-15,79.3,73.4,66.2,75.2,70.1,59.9,99,90,77,30.14,29.96,13,3,13,0.27
2013-12-16,73.4,63.6,55.4,60.4,54.5,48.7,88,73,51,30.24,30.12,8,1,8,0.00
2013-12-17,81.9,63.0,50.0,61.2,53.9,45.5,92,74,47,30.29,30.15,7,1,7,0.00
2013-12-18,77.7,62.6,53.2,56.8,46.7,34.9,96,61,23,30.34,30.22,7,1,7,0.00
2013-12-19,81.7,65.6,52.3,58.6,54.0,47.8,90,69,41,30.32,30.17,16,2,16,0.00
2013-12-20,85.8,72.9,61.5,68.7,64.1,58.3,95,75,52,30.22,30.10,22,3,22,0.00
2013-12-21,87.4,75.8,68.0,72.3,68.9,66.0,99,81,53,30.16,30.05,19,4,19,0.00
2013-12-22,88.5,75.8,69.6,73.4,69.9,10.8,99,84,56,30.19,30.09,15,3,15,0.00
2013-12-23,86.5,76.0,70.3,75.2,71.1,68.7,98,86,60,30.20,30.13,15,3,15,0.00
2013-12-24,73.8,68.0,56.7,70.9,61.8,37.9,99,82,39,30.26,30.15,14,2,14,0.00
2013-12-25,77.7,65.9,55.8,64.2,56.4,44.4,81,72,60,30.24,30.13,9,2,9,0.00
2013-12-26,83.3,71.4,63.1,67.5,63.2,57.0,90,76,55,30.23,30.09,12,1,12,0.00
2013-12-27,82.9,72.2,64.4,69.1,65.7,62.4,96,81,61,30.25,30.11,9,2,9,0.00
2013-12-28,83.7,73.4,66.0,71.6,68.2,65.7,99,85,62,30.22,30.04,21,4,21,0.00
2013-12-29,79.2,73.9,68.4,75.4,71.2,64.0,99,91,81,30.05,29.96,24,5,24,0.25
2013-12-30,78.8,68.0,63.5,64.0,62.3,60.4,92,83,60,30.20,30.04,10,1,10,0.00
2013-12-31,75.2,66.9,62.2,60.4,55.4,45.0,90,69,40,30.31,30.16,7,1,7,0.00
2014-1-1,87.1,71.2,62.4,72.3,65.2,56.5,98,82,58,30.25,30.07,10,1,69,0.00
2014-1-2,83.1,73.2,66.9,73.0,69.5,66.6,99,89,66,30.07,29.92,21,3,21,0.11